createdAt,value
2023-02-09T00:01:55.406Z,5.80
2023-02-09T00:04:23.610Z,5.80
2023-02-09T00:06:51.665Z,5.80
2023-02-09T00:09:22.897Z,5.70
2023-02-09T00:12:09.743Z,5.70
2023-02-09T00:14:40.532Z,5.70
2023-02-09T00:17:09.446Z,5.60
2023-02-09T00:19:36.726Z,5.60
2023-02-09T00:22:04.541Z,5.60
2023-02-09T00:24:32.359Z,5.60
2023-02-09T00:27:00.474Z,5.60
2023-02-09T00:29:28.485Z,5.60
2023-02-09T00:31:56.339Z,5.60
2023-02-09T00:34:24.162Z,5.60
2023-02-09T00:36:51.597Z,5.70
2023-02-09T00:39:19.663Z,5.60
2023-02-09T00:42:06.038Z,5.60
2023-02-09T00:44:36.541Z,5.60
2023-02-09T00:47:05.940Z,5.60
2023-02-09T00:49:33.806Z,5.60
2023-02-09T00:52:02.218Z,5.60
2023-02-09T00:54:29.747Z,5.50
2023-02-09T00:57:07.234Z,5.60
2023-02-09T00:59:39.427Z,5.60
2023-02-09T01:02:07.570Z,5.60
2023-02-09T01:04:35.282Z,5.60
2023-02-09T01:07:03.297Z,5.60
2023-02-09T01:09:30.962Z,5.60
2023-02-09T01:11:58.923Z,5.60
2023-02-09T01:14:26.473Z,5.60
2023-02-09T01:16:54.536Z,5.60
2023-02-09T01:19:22.392Z,5.60
2023-02-09T01:21:53.314Z,5.60
2023-02-09T01:24:21.035Z,5.60
2023-02-09T01:26:49.698Z,5.60
2023-02-09T01:29:19.384Z,5.60
2023-02-09T01:31:52.378Z,5.60
2023-02-09T01:34:23.510Z,5.60
2023-02-09T01:36:52.236Z,5.50
2023-02-09T01:39:21.112Z,5.50
2023-02-09T01:41:49.907Z,5.50
2023-02-09T01:44:21.767Z,5.50
2023-02-09T01:46:49.697Z,5.50
2023-02-09T01:49:21.213Z,5.50
2023-02-09T01:54:47.646Z,5.50
2023-02-09T01:57:21.966Z,5.40
2023-02-09T01:59:56.501Z,5.40
2023-02-09T02:02:24.915Z,5.40
2023-02-09T02:04:53.454Z,5.40
2023-02-09T02:07:24.964Z,5.30
2023-02-09T02:09:53.907Z,5.40
2023-02-09T02:12:28.365Z,5.40
2023-02-09T02:14:56.251Z,5.40
2023-02-09T02:17:36.589Z,5.40
2023-02-09T02:20:24.879Z,5.30
2023-02-09T02:23:28.995Z,5.40
2023-02-09T02:26:12.962Z,5.30
2023-02-09T02:28:50.656Z,5.30
2023-02-09T02:31:50.157Z,5.30
2023-02-09T02:34:28.376Z,5.30
2023-02-09T02:37:00.340Z,5.20
2023-02-09T02:39:32.161Z,5.20
2023-02-09T02:42:25.058Z,5.20
2023-02-09T02:45:08.508Z,5.10
2023-02-09T02:47:39.677Z,5.10
2023-02-09T02:50:20.528Z,5.10
2023-02-09T02:52:50.872Z,5.10
2023-02-09T02:55:30.924Z,5.10
2023-02-09T02:58:02.224Z,5.10
2023-02-09T03:00:36.799Z,5.00
2023-02-09T03:03:06.604Z,5.00
2023-02-09T03:05:37.798Z,5.00
2023-02-09T03:08:05.996Z,5.00
2023-02-09T03:10:54.590Z,4.90
2023-02-09T03:13:36.693Z,4.90
2023-02-09T03:16:23.611Z,4.90
2023-02-09T03:19:21.398Z,4.90
2023-02-09T03:21:59.171Z,4.90
2023-02-09T03:24:33.307Z,4.80
2023-02-09T03:27:19.751Z,4.80
2023-02-09T03:29:51.386Z,4.80
2023-02-09T03:32:20.497Z,4.80
2023-02-09T03:34:48.512Z,4.80
2023-02-09T03:37:16.469Z,4.70
2023-02-09T03:39:44.695Z,4.70
2023-02-09T03:42:19.326Z,4.70
2023-02-09T03:44:47.347Z,4.70
2023-02-09T03:47:15.213Z,4.60
2023-02-09T03:49:44.682Z,4.60
2023-02-09T03:52:14.764Z,4.50
2023-02-09T03:54:42.636Z,4.50
2023-02-09T03:57:10.876Z,4.40
2023-02-09T03:59:40.186Z,4.30
2023-02-09T04:02:09.672Z,4.20
2023-02-09T04:04:46.076Z,4.20
2023-02-09T04:07:14.181Z,4.20
2023-02-09T04:09:42.699Z,4.10
2023-02-09T04:12:27.534Z,4.10
2023-02-09T04:14:55.260Z,4.10
2023-02-09T04:17:23.857Z,4.10
2023-02-09T04:19:51.871Z,4.00
2023-02-09T04:22:19.627Z,3.90
2023-02-09T04:24:47.310Z,3.90
2023-02-09T04:27:15.940Z,3.90
2023-02-09T04:29:44.176Z,3.90
2023-02-09T04:32:11.905Z,3.80
2023-02-09T04:34:43.037Z,3.80
2023-02-09T04:37:31.750Z,3.80
2023-02-09T04:40:13.585Z,3.80
2023-02-09T04:42:41.134Z,3.70
2023-02-09T04:45:09.601Z,3.70
2023-02-09T04:47:37.305Z,3.80
2023-02-09T04:50:05.744Z,3.70
2023-02-09T04:52:33.478Z,3.70
2023-02-09T04:55:01.408Z,3.60
2023-02-09T04:57:50.764Z,3.60
2023-02-09T05:00:19.210Z,3.50
2023-02-09T05:02:46.706Z,3.50
2023-02-09T05:05:14.871Z,3.60
2023-02-09T05:07:42.806Z,3.50
2023-02-09T05:10:11.482Z,3.50
2023-02-09T05:12:44.432Z,3.50
2023-02-09T05:15:13.587Z,3.50
2023-02-09T05:17:41.598Z,3.40
2023-02-09T05:20:11.106Z,3.40
2023-02-09T05:22:58.823Z,3.40
2023-02-09T05:25:26.802Z,3.40
2023-02-09T05:27:55.286Z,3.40
2023-02-09T05:30:23.256Z,3.40
2023-02-09T05:32:51.432Z,3.40
2023-02-09T05:35:21.377Z,3.30
2023-02-09T05:37:49.252Z,3.30
2023-02-09T05:40:18.858Z,3.30
2023-02-09T05:42:46.586Z,3.30
2023-02-09T05:45:15.313Z,3.30
2023-02-09T05:47:47.217Z,3.30
2023-02-09T05:50:15.642Z,3.30
2023-02-09T05:52:43.361Z,3.30
2023-02-09T05:55:11.485Z,3.30
2023-02-09T06:00:33.993Z,3.20
2023-02-09T06:03:02.616Z,3.20
2023-02-09T06:05:30.345Z,3.20
2023-02-09T06:07:59.027Z,3.20
2023-02-09T06:10:26.717Z,3.20
2023-02-09T06:12:54.689Z,3.10
2023-02-09T06:15:23.767Z,3.10
2023-02-09T06:18:02.328Z,3.10
2023-02-09T06:20:27.985Z,3.10
2023-02-09T06:22:55.908Z,3.10
2023-02-09T06:25:25.860Z,3.10
2023-02-09T06:27:54.008Z,3.10
2023-02-09T06:30:21.791Z,3.00
2023-02-09T06:32:49.660Z,3.00
2023-02-09T06:35:19.484Z,3.00
2023-02-09T06:37:47.504Z,3.00
2023-02-09T06:40:15.565Z,3.00
2023-02-09T06:42:46.286Z,3.00
2023-02-09T06:45:16.185Z,3.00
2023-02-09T06:47:45.889Z,3.00
2023-02-09T06:50:15.648Z,3.00
2023-02-09T06:52:48.374Z,3.00
2023-02-09T06:55:16.343Z,3.10
2023-02-09T06:57:44.316Z,3.10
2023-02-09T07:00:13.832Z,3.10
2023-02-09T07:02:45.694Z,3.00
2023-02-09T07:05:15.163Z,3.00
2023-02-09T07:07:44.128Z,3.10
2023-02-09T07:10:14.967Z,3.10
2023-02-09T07:12:43.684Z,3.20
2023-02-09T07:15:13.374Z,3.30
2023-02-09T07:17:43.721Z,3.30
2023-02-09T07:20:12.373Z,3.40
2023-02-09T07:22:41.109Z,3.50
2023-02-09T07:25:09.120Z,3.60
2023-02-09T07:27:36.705Z,3.70
2023-02-09T07:30:05.377Z,3.80
2023-02-09T07:32:34.298Z,4.00
2023-02-09T07:35:02.102Z,4.10
2023-02-09T07:37:29.638Z,4.20
2023-02-09T07:39:57.807Z,4.30
2023-02-09T07:42:26.082Z,4.40
2023-02-09T07:44:56.033Z,4.40
2023-02-09T07:47:23.566Z,4.50
2023-02-09T07:50:04.897Z,4.60
2023-02-09T07:52:32.910Z,4.60
2023-02-09T07:55:00.924Z,4.70
2023-02-09T07:57:28.250Z,4.80
2023-02-09T07:59:56.466Z,4.80
2023-02-09T08:02:33.899Z,4.90
2023-02-09T08:05:03.021Z,4.90
2023-02-09T08:07:31.914Z,5.00
2023-02-09T08:09:59.810Z,5.00
2023-02-09T08:12:48.659Z,5.00
2023-02-09T08:15:22.185Z,5.10
2023-02-09T08:17:53.254Z,5.10
2023-02-09T08:20:27.939Z,5.20
2023-02-09T08:22:59.804Z,5.20
2023-02-09T08:25:27.555Z,5.30
2023-02-09T08:27:56.492Z,5.30
2023-02-09T08:33:12.864Z,5.40
2023-02-09T08:35:41.199Z,5.50
2023-02-09T08:38:12.819Z,5.50
2023-02-09T08:40:42.634Z,5.50
2023-02-09T08:43:11.235Z,5.50
2023-02-09T08:45:42.121Z,5.60
2023-02-09T08:48:10.723Z,5.60
2023-02-09T08:50:40.147Z,5.60
2023-02-09T08:53:08.516Z,5.70
2023-02-09T08:55:39.359Z,5.70
2023-02-09T08:58:08.098Z,5.70
2023-02-09T09:00:35.992Z,5.70
2023-02-09T09:03:10.386Z,5.80
2023-02-09T09:05:39.032Z,5.80
2023-02-09T09:08:07.232Z,5.80
2023-02-09T09:10:35.024Z,5.80
2023-02-09T09:13:02.927Z,5.80
2023-02-09T09:15:30.722Z,5.90
2023-02-09T09:17:58.432Z,5.90
2023-02-09T09:20:28.902Z,6.00
2023-02-09T09:22:59.709Z,6.00
2023-02-09T09:25:27.790Z,6.10
2023-02-09T09:27:55.608Z,6.10
2023-02-09T09:30:23.308Z,6.20
2023-02-09T09:32:53.004Z,6.20
2023-02-09T09:35:20.632Z,6.30
2023-02-09T09:37:48.843Z,6.40
2023-02-09T09:40:23.638Z,6.40
2023-02-09T09:42:55.530Z,6.50
2023-02-09T09:45:25.422Z,6.50
2023-02-09T09:47:54.354Z,6.60
2023-02-09T09:50:26.456Z,6.60
2023-02-09T09:52:57.071Z,6.70
2023-02-09T09:55:28.788Z,6.70
2023-02-09T09:58:03.783Z,6.70
2023-02-09T10:00:41.241Z,6.70
2023-02-09T10:03:19.173Z,6.80
2023-02-09T10:05:53.857Z,6.80
2023-02-09T10:08:46.465Z,6.90
2023-02-09T10:11:16.749Z,6.90
2023-02-09T10:13:54.098Z,7.00
2023-02-09T10:16:27.632Z,7.00
2023-02-09T10:18:58.077Z,7.00
2023-02-09T10:21:29.075Z,7.10
2023-02-09T10:24:06.549Z,7.10
2023-02-09T10:26:38.240Z,7.20
2023-02-09T10:29:15.837Z,7.20
2023-02-09T10:31:54.963Z,7.30
2023-02-09T10:34:36.238Z,7.30
2023-02-09T10:37:40.996Z,7.40
2023-02-09T10:40:27.974Z,7.40
2023-02-09T10:43:02.299Z,7.40
2023-02-09T10:45:40.011Z,7.50
2023-02-09T10:48:17.628Z,7.50
2023-02-09T10:50:55.229Z,7.60
2023-02-09T10:53:32.668Z,7.60
2023-02-09T10:56:06.473Z,7.70
2023-02-09T10:58:38.106Z,7.70
2023-02-09T11:01:18.842Z,7.70
2023-02-09T11:03:59.804Z,7.80
2023-02-09T11:06:28.312Z,7.70
2023-02-09T11:09:06.094Z,7.80
2023-02-09T11:11:36.704Z,7.80
2023-02-09T11:14:07.131Z,7.80
2023-02-09T11:16:44.863Z,7.80
2023-02-09T11:19:22.908Z,7.90
2023-02-09T11:22:09.062Z,7.90
2023-02-09T11:24:41.024Z,8.00
2023-02-09T11:27:12.684Z,8.00
2023-02-09T11:30:03.003Z,8.10
2023-02-09T11:32:44.019Z,8.10
2023-02-09T11:35:19.173Z,8.10
2023-02-09T11:38:01.266Z,8.10
2023-02-09T11:40:35.840Z,8.20
2023-02-09T11:43:10.439Z,8.20
2023-02-09T11:45:52.081Z,8.30
2023-02-09T11:48:27.373Z,8.30
2023-02-09T11:51:17.353Z,8.40
2023-02-09T11:54:04.414Z,8.40
2023-02-09T11:56:42.290Z,8.50
2023-02-09T11:59:28.553Z,8.40
2023-02-09T12:02:23.872Z,8.50
2023-02-09T12:04:58.810Z,8.50
2023-02-09T12:07:28.527Z,8.50
2023-02-09T12:10:00.457Z,8.60
2023-02-09T12:12:44.013Z,8.50
2023-02-09T12:15:24.865Z,8.50
2023-02-09T12:17:59.528Z,8.50
2023-02-09T12:20:30.617Z,8.40
2023-02-09T12:23:01.495Z,8.50
2023-02-09T12:25:45.324Z,8.60
2023-02-09T12:28:17.289Z,8.70
2023-02-09T12:30:49.203Z,8.70
2023-02-09T12:33:27.218Z,8.80
2023-02-09T12:36:07.452Z,8.90
2023-02-09T12:39:03.891Z,9.00
2023-02-09T12:41:28.715Z,9.20
2023-02-09T12:44:15.538Z,9.20
2023-02-09T12:46:51.055Z,9.10
2023-02-09T12:49:32.295Z,9.10
2023-02-09T12:52:03.759Z,9.20
2023-02-09T12:54:55.673Z,9.10
2023-02-09T12:57:27.618Z,9.20
2023-02-09T12:59:59.811Z,9.40
2023-02-09T13:02:52.760Z,9.60
2023-02-09T13:05:28.669Z,9.80
2023-02-09T13:08:16.567Z,10.00
2023-02-09T13:11:18.007Z,10.30
2023-02-09T13:13:55.866Z,10.50
2023-02-09T13:16:27.809Z,10.90
2023-02-09T13:19:12.352Z,11.10
2023-02-09T13:22:19.241Z,11.00
2023-02-09T13:24:56.932Z,10.90
2023-02-09T13:27:26.703Z,10.90
2023-02-09T13:29:57.444Z,11.20
2023-02-09T13:32:50.456Z,11.50
2023-02-09T13:35:25.146Z,11.80
2023-02-09T13:37:59.780Z,12.00
2023-02-09T13:40:29.626Z,12.20
2023-02-09T13:43:01.600Z,12.30
2023-02-09T13:45:30.280Z,12.40
2023-02-09T13:48:01.009Z,12.60
2023-02-09T13:50:29.660Z,12.50
2023-02-09T13:53:11.538Z,12.70
2023-02-09T13:55:45.190Z,13.00
2023-02-09T13:58:25.831Z,13.30
2023-02-09T14:01:00.270Z,13.70
2023-02-09T14:03:31.987Z,13.70
2023-02-09T14:06:03.836Z,13.90
2023-02-09T14:08:34.093Z,14.20
2023-02-09T14:11:08.845Z,14.70
2023-02-09T14:13:38.700Z,15.10
2023-02-09T14:16:09.804Z,15.60
2023-02-09T14:18:56.970Z,15.60
2023-02-09T14:21:28.828Z,16.00
2023-02-09T14:24:00.789Z,16.70
2023-02-09T14:26:33.880Z,17.80
2023-02-09T14:29:23.921Z,18.90
2023-02-09T14:31:58.002Z,19.40
2023-02-09T14:34:42.613Z,20.10
2023-02-09T14:37:20.381Z,20.60
2023-02-09T14:40:06.895Z,21.20
2023-02-09T14:42:43.226Z,21.50
2023-02-09T14:45:24.956Z,22.10
2023-02-09T14:47:52.784Z,22.20
2023-02-09T14:50:23.775Z,22.10
2023-02-09T14:52:58.788Z,21.70
2023-02-09T14:55:27.677Z,21.10
2023-02-09T14:57:55.695Z,21.20
2023-02-09T15:00:26.188Z,21.10
2023-02-09T15:02:55.339Z,21.10
2023-02-09T15:05:26.174Z,21.30
2023-02-09T15:07:57.276Z,21.50
2023-02-09T15:10:47.182Z,21.50
2023-02-09T15:13:17.573Z,21.20
2023-02-09T15:15:45.818Z,20.50
2023-02-09T15:18:19.733Z,20.10
2023-02-09T15:20:48.385Z,19.80
2023-02-09T15:23:16.144Z,19.90
2023-02-09T15:25:50.269Z,20.40
2023-02-09T15:28:29.526Z,20.60
2023-02-09T15:30:59.617Z,20.70
2023-02-09T15:33:31.602Z,20.40
2023-02-09T15:36:00.388Z,20.00
2023-02-09T15:38:33.181Z,19.90
2023-02-09T15:41:24.336Z,20.00
2023-02-09T15:44:10.239Z,20.10
2023-02-09T15:46:59.517Z,19.30
2023-02-09T15:49:27.824Z,18.20
2023-02-09T15:51:55.639Z,17.30
2023-02-09T15:54:28.113Z,16.60
2023-02-09T15:56:56.293Z,16.00
2023-02-09T15:59:43.849Z,15.50
2023-02-09T16:02:15.127Z,15.10
2023-02-09T16:04:43.858Z,14.60
2023-02-09T16:07:18.949Z,14.30
2023-02-09T16:09:47.657Z,13.90
2023-02-09T16:12:15.260Z,13.70
2023-02-09T16:14:43.421Z,13.40
2023-02-09T16:17:11.647Z,13.10
2023-02-09T16:19:40.098Z,12.70
2023-02-09T16:22:08.564Z,12.30
2023-02-09T16:24:45.273Z,11.80
2023-02-09T16:27:30.876Z,11.40
2023-02-09T16:29:59.872Z,11.10
2023-02-09T16:32:29.102Z,10.80
2023-02-09T16:35:07.372Z,10.60
2023-02-09T16:37:30.465Z,10.30
2023-02-09T16:40:01.117Z,10.20
2023-02-09T16:42:29.949Z,10.00
2023-02-09T16:44:57.973Z,9.80
2023-02-09T16:47:27.282Z,9.70
2023-02-09T16:50:23.244Z,9.60
2023-02-09T16:52:53.717Z,9.40
2023-02-09T16:55:28.551Z,9.30
2023-02-09T16:57:58.254Z,9.20
2023-02-09T17:00:28.657Z,9.20
2023-02-09T17:03:11.835Z,9.10
2023-02-09T17:05:39.437Z,9.00
2023-02-09T17:10:55.842Z,8.80
2023-02-09T17:13:24.627Z,8.60
2023-02-09T17:16:01.844Z,8.50
2023-02-09T17:18:51.816Z,8.40
2023-02-09T17:21:28.630Z,8.20
2023-02-09T17:23:58.031Z,8.00
2023-02-09T17:26:26.739Z,7.90
2023-02-09T17:29:03.309Z,7.80
2023-02-09T17:31:47.068Z,7.70
2023-02-09T17:34:06.117Z,7.60
2023-02-09T17:36:34.326Z,7.50
2023-02-09T17:39:02.083Z,7.40
2023-02-09T17:41:34.038Z,7.40
2023-02-09T17:44:26.480Z,7.30
2023-02-09T17:46:47.813Z,7.20
2023-02-09T17:49:18.793Z,7.20
2023-02-09T17:51:47.524Z,7.10
2023-02-09T17:54:20.971Z,7.10
2023-02-09T17:56:48.549Z,7.00
2023-02-09T17:59:18.112Z,7.00
2023-02-09T18:01:52.488Z,6.90
2023-02-09T18:04:23.698Z,6.90
2023-02-09T18:06:52.963Z,6.90
2023-02-09T18:09:20.817Z,6.90
2023-02-09T18:11:58.561Z,6.80
2023-02-09T18:14:27.949Z,6.80
2023-02-09T18:16:56.010Z,6.70
2023-02-09T18:19:28.266Z,6.60
2023-02-09T18:21:59.351Z,6.60
2023-02-09T18:24:30.696Z,6.60
2023-02-09T18:26:58.983Z,6.50
2023-02-09T18:29:28.672Z,6.50
2023-02-09T18:32:01.368Z,6.50
2023-02-09T18:34:29.934Z,6.40
2023-02-09T18:36:58.200Z,6.40
2023-02-09T18:39:25.922Z,6.40
2023-02-09T18:41:56.345Z,6.30
2023-02-09T18:44:26.749Z,6.30
2023-02-09T18:46:55.111Z,6.30
2023-02-09T18:49:23.798Z,6.30
2023-02-09T18:51:52.854Z,6.20
2023-02-09T18:54:20.698Z,6.20
2023-02-09T18:56:48.881Z,6.20
2023-02-09T18:59:18.342Z,6.20
2023-02-09T19:01:46.814Z,6.20
2023-02-09T19:04:15.090Z,6.20
2023-02-09T19:06:43.579Z,6.10
2023-02-09T19:09:11.853Z,6.00
2023-02-09T19:11:40.187Z,6.00
2023-02-09T19:14:26.894Z,6.10
2023-02-09T19:16:58.225Z,6.00
2023-02-09T19:19:27.506Z,6.00
2023-02-09T19:21:56.996Z,5.90
2023-02-09T19:24:25.064Z,5.90
2023-02-09T19:26:52.856Z,5.90
2023-02-09T19:29:23.053Z,5.80
2023-02-09T19:31:50.614Z,5.80
2023-02-09T19:34:19.312Z,5.80
2023-02-09T19:36:47.269Z,5.70
2023-02-09T19:39:15.303Z,5.70
2023-02-09T19:41:44.452Z,5.60
2023-02-09T19:44:13.376Z,5.60
2023-02-09T19:46:44.911Z,5.60
2023-02-09T19:49:18.525Z,5.60
2023-02-09T19:51:46.646Z,5.50
2023-02-09T19:54:14.944Z,5.40
2023-02-09T19:56:45.656Z,5.40
2023-02-09T19:59:17.590Z,5.40
2023-02-09T20:01:45.693Z,5.40
2023-02-09T20:04:13.440Z,5.40
2023-02-09T20:06:41.338Z,5.40
2023-02-09T20:09:08.731Z,5.30
2023-02-09T20:11:36.945Z,5.40
2023-02-09T20:14:05.573Z,5.40
2023-02-09T20:16:35.037Z,5.30
2023-02-09T20:19:03.169Z,5.30
2023-02-09T20:21:31.378Z,5.30
2023-02-09T20:23:59.677Z,5.30
2023-02-09T20:26:38.904Z,5.30
2023-02-09T20:29:08.002Z,5.30
2023-02-09T20:31:37.947Z,5.30
2023-02-09T20:34:08.033Z,5.30
2023-02-09T20:39:30.757Z,5.30
2023-02-09T20:42:30.849Z,5.30
2023-02-09T20:45:16.617Z,5.20
2023-02-09T20:47:47.768Z,5.20
2023-02-09T20:50:17.070Z,5.10
2023-02-09T20:52:46.221Z,5.10
2023-02-09T20:55:14.017Z,5.00
2023-02-09T20:57:42.327Z,5.10
2023-02-09T21:00:10.849Z,5.10
2023-02-09T21:02:39.304Z,5.00
2023-02-09T21:05:07.641Z,5.00
2023-02-09T21:08:08.325Z,5.00
2023-02-09T21:10:38.594Z,5.00
2023-02-09T21:13:08.901Z,5.00
2023-02-09T21:15:42.141Z,4.90
2023-02-09T21:18:09.916Z,5.00
2023-02-09T21:20:38.810Z,5.00
2023-02-09T21:23:07.356Z,4.90
2023-02-09T21:25:36.126Z,4.90
2023-02-09T21:28:04.558Z,4.90
2023-02-09T21:30:32.314Z,4.80
2023-02-09T21:33:00.962Z,4.80
2023-02-09T21:35:28.715Z,4.80
2023-02-09T21:37:56.652Z,4.80
2023-02-09T21:40:25.345Z,4.80
2023-02-09T21:42:53.402Z,4.70
2023-02-09T21:45:34.761Z,4.80
2023-02-09T21:48:02.845Z,4.80
2023-02-09T21:50:30.887Z,4.70
2023-02-09T21:53:00.046Z,4.70
2023-02-09T21:55:31.399Z,4.70
2023-02-09T21:57:59.068Z,4.70
2023-02-09T22:00:26.957Z,4.70
2023-02-09T22:03:06.676Z,4.60
2023-02-09T22:05:35.420Z,4.60
2023-02-09T22:08:03.367Z,4.60
2023-02-09T22:10:31.313Z,4.60
2023-02-09T22:12:58.768Z,4.60
2023-02-09T22:15:26.592Z,4.60
2023-02-09T22:17:54.180Z,4.50
2023-02-09T22:20:21.795Z,4.50
2023-02-09T22:22:49.598Z,4.50
2023-02-09T22:25:18.180Z,4.50
2023-02-09T22:27:45.659Z,4.50
2023-02-09T22:30:13.574Z,4.50
2023-02-09T22:32:41.109Z,4.50
2023-02-09T22:35:09.001Z,4.50
2023-02-09T22:37:36.554Z,4.50
2023-02-09T22:40:04.429Z,4.60
2023-02-09T22:42:32.250Z,4.60
2023-02-09T22:45:00.159Z,4.60
2023-02-09T22:47:28.024Z,4.60
2023-02-09T22:49:56.108Z,4.60
2023-02-09T22:52:24.660Z,4.60
2023-02-09T22:54:53.162Z,4.60
2023-02-09T22:57:20.867Z,4.60
2023-02-09T22:59:49.161Z,4.60
2023-02-09T23:02:17.036Z,4.60
2023-02-09T23:04:58.400Z,4.60
2023-02-09T23:07:26.449Z,4.60
2023-02-09T23:09:54.528Z,4.60
2023-02-09T23:12:22.331Z,4.60
2023-02-09T23:14:50.097Z,4.60
2023-02-09T23:17:17.763Z,4.60
2023-02-09T23:19:45.618Z,4.60
2023-02-09T23:22:13.851Z,4.50
2023-02-09T23:24:41.570Z,4.40
2023-02-09T23:27:09.343Z,4.40
2023-02-09T23:29:37.133Z,4.40
2023-02-09T23:32:05.507Z,4.40
2023-02-09T23:34:33.945Z,4.40
2023-02-09T23:37:13.171Z,4.40
2023-02-09T23:39:32.731Z,4.30
2023-02-09T23:42:00.751Z,4.30
2023-02-09T23:44:48.212Z,4.30
2023-02-09T23:47:16.729Z,4.20
2023-02-09T23:49:44.222Z,4.20
2023-02-09T23:52:12.324Z,4.20
2023-02-09T23:54:40.184Z,4.20
2023-02-09T23:57:09.238Z,4.10
2023-02-09T23:59:37.008Z,4.10
